aviador You're here:

LIBP Decoded Metar

PESCARA in ITALY
Report Time2018-01-17 05:50:00
UTC Time2018-01-17 06:53:28
Flight Rules vfr VFR
Wind260° at 15 kt
W.Decomp.*RWY 22: 11.8 kt HW 9.2 kt RCW
W.Rank260° ranks 25
Current wind is above 260° avg. (5.1)
Visibility9999 m
Phenomena:N/A
Clouds:Few 082 Hf
Expected CloudBase > 6,000 ft AGL from Temp-Dew spread
CeilingNone
Temp18°C (ISA +3)
Dew Point03°C (37% RH)
AAT11.1°C
QNH1000 hPa
Density Alt945 ft
Elevation36 ft
Report Wrong Elevation
Raw Report
LIBP 170550Z AUTO 26015KT 220V290 9999 FEW082/// 18/03 Q1000=

Extra information for LIBP:More info

Metar Taf Metar & Taf Last 4 Metars F.Rules Stats Wind Profile Meteogram Temp Stats Airport Information Weather charts Add Link Nearby VenuesMetar ALERT Operation Metar Decoded Social comments